createdAt,value
2022-10-15T00:01:22.406Z,86.34
2022-10-15T00:03:49.484Z,86.22
2022-10-15T00:06:23.746Z,85.97
2022-10-15T00:08:51.223Z,85.93
2022-10-15T00:11:23.345Z,86.04
2022-10-15T00:13:50.776Z,85.85
2022-10-15T00:16:21.063Z,85.78
2022-10-15T00:18:52.619Z,85.63
2022-10-15T00:21:21.393Z,85.50
2022-10-15T00:23:49.295Z,85.30
2022-10-15T00:26:19.451Z,85.38
2022-10-15T00:28:47.282Z,85.22
2022-10-15T00:31:16.205Z,84.93
2022-10-15T00:33:43.945Z,84.93
2022-10-15T00:36:15.396Z,84.63
2022-10-15T00:38:42.847Z,84.81
2022-10-15T00:41:22.006Z,84.71
2022-10-15T00:43:54.863Z,84.75
2022-10-15T00:46:29.701Z,84.67
2022-10-15T00:49:24.678Z,84.56
2022-10-15T00:52:16.978Z,84.83
2022-10-15T00:54:52.037Z,84.49
2022-10-15T00:57:22.100Z,84.37
2022-10-15T00:59:51.438Z,84.65
2022-10-15T01:02:20.776Z,84.52
2022-10-15T01:04:49.367Z,84.66
2022-10-15T01:09:48.408Z,84.41
2022-10-15T01:12:40.547Z,84.38
2022-10-15T01:15:45.322Z,84.40
2022-10-15T01:18:20.801Z,84.45
2022-10-15T01:21:12.121Z,84.59
2022-10-15T01:24:01.345Z,84.48
2022-10-15T01:26:56.404Z,84.69
2022-10-15T01:29:50.447Z,84.53
2022-10-15T01:32:21.652Z,84.47
2022-10-15T01:35:05.838Z,83.97
2022-10-15T01:37:50.768Z,84.32
2022-10-15T01:41:03.568Z,84.52
2022-10-15T01:43:39.506Z,84.81
2022-10-15T01:47:06.691Z,84.60
2022-10-15T01:49:37.098Z,84.89
2022-10-15T01:52:19.355Z,85.01
2022-10-15T01:54:47.754Z,84.97
2022-10-15T01:57:20.712Z,84.88
2022-10-15T01:59:48.049Z,84.78
2022-10-15T02:02:16.349Z,84.71
2022-10-15T02:04:43.376Z,84.38
2022-10-15T02:07:15.438Z,84.43
2022-10-15T02:09:57.403Z,84.33
2022-10-15T02:13:02.280Z,84.32
2022-10-15T02:16:01.516Z,84.25
2022-10-15T02:18:40.922Z,84.07
2022-10-15T02:21:18.488Z,84.15
2022-10-15T02:23:52.098Z,84.41
2022-10-15T02:26:25.478Z,84.30
2022-10-15T02:28:55.930Z,83.95
2022-10-15T02:31:26.223Z,83.82
2022-10-15T02:33:56.047Z,83.92
2022-10-15T02:36:25.785Z,83.89
2022-10-15T02:38:55.848Z,84.08
2022-10-15T02:41:26.979Z,83.52
2022-10-15T02:43:57.056Z,83.93
2022-10-15T02:46:26.423Z,83.83
2022-10-15T02:48:53.356Z,84.13
2022-10-15T02:51:20.327Z,83.92
2022-10-15T02:53:47.365Z,83.68
2022-10-15T02:56:14.508Z,83.44
2022-10-15T02:58:44.405Z,83.53
2022-10-15T03:01:11.586Z,83.47
2022-10-15T03:03:39.788Z,83.76
2022-10-15T03:06:07.060Z,83.66
2022-10-15T03:08:37.735Z,83.61
2022-10-15T03:11:05.763Z,83.21
2022-10-15T03:13:36.205Z,83.21
2022-10-15T03:16:07.513Z,83.38
2022-10-15T03:18:38.303Z,83.31
2022-10-15T03:21:09.205Z,83.48
2022-10-15T03:23:36.318Z,83.41
2022-10-15T03:26:13.074Z,83.55
2022-10-15T03:28:43.419Z,83.85
2022-10-15T03:31:14.433Z,83.59
2022-10-15T03:33:45.976Z,83.42
2022-10-15T03:36:13.680Z,83.13
2022-10-15T03:38:40.749Z,82.99
2022-10-15T03:41:11.912Z,82.91
2022-10-15T03:43:43.586Z,82.69
2022-10-15T03:46:12.186Z,82.50
2022-10-15T03:48:43.075Z,82.24
2022-10-15T03:51:15.570Z,82.20
2022-10-15T03:53:51.075Z,82.46
2022-10-15T03:56:18.321Z,82.42
2022-10-15T03:58:49.167Z,82.27
2022-10-15T04:01:17.959Z,82.17
2022-10-15T04:03:45.598Z,81.88
2022-10-15T04:06:18.723Z,81.96
2022-10-15T04:08:46.528Z,81.77
2022-10-15T04:11:25.612Z,81.62
2022-10-15T04:14:03.732Z,81.78
2022-10-15T04:16:33.755Z,81.62
2022-10-15T04:19:08.662Z,81.53
2022-10-15T04:21:38.355Z,81.37
2022-10-15T04:24:06.218Z,81.51
2022-10-15T04:26:39.453Z,81.18
2022-10-15T04:29:06.375Z,81.00
2022-10-15T04:31:36.552Z,81.12
2022-10-15T04:34:04.406Z,81.32
2022-10-15T04:36:31.513Z,81.53
2022-10-15T04:39:09.679Z,81.03
2022-10-15T04:41:50.153Z,81.19
2022-10-15T04:44:21.720Z,81.22
2022-10-15T04:46:57.263Z,81.11
2022-10-15T04:49:41.899Z,81.29
2022-10-15T04:52:25.037Z,81.08
2022-10-15T04:54:56.106Z,80.97
2022-10-15T04:57:23.390Z,80.88
2022-10-15T04:59:57.969Z,80.71
2022-10-15T05:02:33.166Z,80.44
2022-10-15T05:05:19.711Z,80.36
2022-10-15T05:08:11.793Z,80.27
2022-10-15T05:11:06.363Z,80.43
2022-10-15T05:13:37.699Z,80.07
2022-10-15T05:16:56.295Z,79.95
2022-10-15T05:19:52.788Z,80.18
2022-10-15T05:29:41.784Z,79.16
2022-10-15T05:32:48.646Z,79.05
2022-10-15T05:38:23.326Z,78.92
2022-10-15T05:44:01.357Z,79.01
2022-10-15T05:46:41.088Z,78.96
2022-10-15T05:53:24.524Z,78.28
2022-10-15T05:56:43.696Z,77.90
2022-10-15T06:00:47.032Z,77.39
2022-10-15T06:03:14.781Z,77.02
2022-10-15T06:05:42.607Z,76.98
2022-10-15T06:08:17.563Z,77.45
2022-10-15T06:10:48.021Z,76.92
2022-10-15T06:13:17.813Z,76.44
2022-10-15T06:15:46.217Z,76.23
2022-10-15T06:18:16.330Z,76.18
2022-10-15T06:20:46.581Z,75.89
2022-10-15T06:23:41.451Z,75.01
2022-10-15T06:26:09.913Z,74.04
2022-10-15T06:28:37.758Z,73.95
2022-10-15T06:31:06.224Z,73.94
2022-10-15T06:33:41.623Z,73.87
2022-10-15T06:36:17.565Z,73.87
2022-10-15T06:38:47.825Z,74.12
2022-10-15T06:41:14.835Z,74.07
2022-10-15T06:43:41.838Z,74.06
2022-10-15T06:46:12.422Z,74.66
2022-10-15T06:51:23.859Z,74.81
2022-10-15T06:53:50.880Z,74.98
2022-10-15T06:56:18.657Z,75.02
2022-10-15T06:58:48.941Z,75.11
2022-10-15T07:01:17.223Z,75.03
2022-10-15T07:03:53.853Z,75.04
2022-10-15T07:06:28.933Z,75.16
2022-10-15T07:08:56.019Z,75.05
2022-10-15T07:11:22.981Z,75.22
2022-10-15T07:13:50.396Z,75.05
2022-10-15T07:16:17.483Z,75.23
2022-10-15T07:18:44.927Z,74.90
2022-10-15T07:21:12.186Z,74.70
2022-10-15T07:23:39.253Z,74.75
2022-10-15T07:26:06.145Z,74.72
2022-10-15T07:28:33.369Z,74.86
2022-10-15T07:31:05.841Z,74.50
2022-10-15T07:33:34.675Z,74.60
2022-10-15T07:36:09.921Z,74.61
2022-10-15T07:38:37.792Z,74.33
2022-10-15T07:41:12.088Z,74.42
2022-10-15T07:43:43.147Z,74.34
2022-10-15T07:46:10.495Z,74.24
2022-10-15T07:48:38.739Z,74.24
2022-10-15T07:51:07.736Z,74.27
2022-10-15T07:53:34.830Z,74.32
2022-10-15T07:56:04.185Z,73.64
2022-10-15T07:58:34.774Z,73.57
2022-10-15T08:01:02.794Z,73.31
2022-10-15T08:03:31.939Z,73.13
2022-10-15T08:06:06.619Z,72.28
2022-10-15T08:08:34.625Z,72.32
2022-10-15T08:11:08.950Z,72.25
2022-10-15T08:13:36.328Z,72.32
2022-10-15T08:16:06.473Z,72.17
2022-10-15T08:18:36.712Z,71.68
2022-10-15T08:21:05.057Z,71.35
2022-10-15T08:23:33.066Z,71.20
2022-10-15T08:26:00.765Z,70.88
2022-10-15T08:28:29.149Z,70.31
2022-10-15T08:31:04.506Z,69.87
2022-10-15T08:33:34.337Z,69.13
2022-10-15T08:36:01.644Z,69.20
2022-10-15T08:38:31.727Z,69.17
2022-10-15T08:41:00.974Z,68.72
2022-10-15T08:43:43.636Z,68.50
2022-10-15T08:46:26.331Z,68.35
2022-10-15T08:48:58.608Z,67.55
2022-10-15T08:51:28.843Z,67.18
2022-10-15T08:53:59.603Z,67.14
2022-10-15T08:56:39.602Z,66.22
2022-10-15T08:59:16.094Z,66.98
2022-10-15T09:01:55.960Z,67.12
2022-10-15T09:04:38.499Z,67.51
2022-10-15T09:08:07.389Z,67.51
2022-10-15T09:10:45.012Z,67.79
2022-10-15T09:13:28.856Z,67.59
2022-10-15T09:16:00.693Z,67.28
2022-10-15T09:18:33.739Z,66.96
2022-10-15T09:21:05.581Z,66.70
2022-10-15T09:23:37.117Z,66.94
2022-10-15T09:26:14.141Z,67.16
2022-10-15T09:28:56.835Z,67.09
2022-10-15T09:31:30.653Z,67.20
2022-10-15T09:34:19.877Z,66.85
2022-10-15T09:36:57.352Z,66.46
2022-10-15T09:39:41.316Z,66.71
2022-10-15T09:42:25.247Z,66.42
2022-10-15T09:44:53.275Z,66.05
2022-10-15T09:47:32.917Z,66.22
2022-10-15T09:50:11.390Z,65.85
2022-10-15T09:52:59.742Z,65.60
2022-10-15T09:55:43.526Z,65.10
2022-10-15T09:58:26.855Z,65.38
2022-10-15T10:00:59.274Z,65.58
2022-10-15T10:03:34.452Z,65.47
2022-10-15T10:06:17.019Z,65.82
2022-10-15T10:08:58.210Z,65.82
2022-10-15T10:11:26.709Z,65.77
2022-10-15T10:13:55.861Z,65.64
2022-10-15T10:16:24.405Z,65.69
2022-10-15T10:19:13.686Z,65.71
2022-10-15T10:21:42.970Z,65.79
2022-10-15T10:24:32.019Z,65.06
2022-10-15T10:26:59.560Z,65.33
2022-10-15T10:29:35.314Z,65.17
2022-10-15T10:32:18.578Z,65.49
2022-10-15T10:34:52.429Z,65.54
2022-10-15T10:37:23.009Z,65.41
2022-10-15T10:39:54.278Z,65.50
2022-10-15T10:42:32.922Z,65.11
2022-10-15T10:45:23.189Z,64.76
2022-10-15T10:47:51.347Z,64.50
2022-10-15T10:50:40.803Z,63.63
2022-10-15T10:53:28.309Z,63.63
2022-10-15T10:55:59.601Z,63.37
2022-10-15T10:58:30.013Z,62.96
2022-10-15T11:01:03.194Z,62.69
2022-10-15T11:03:39.056Z,62.54
2022-10-15T11:06:09.077Z,61.76
2022-10-15T11:08:51.275Z,61.20
2022-10-15T11:11:33.797Z,60.73
2022-10-15T11:14:34.283Z,60.67
2022-10-15T11:17:32.384Z,60.81
2022-10-15T11:20:30.256Z,60.33
2022-10-15T11:23:27.356Z,59.84
2022-10-15T11:25:59.480Z,59.22
2022-10-15T11:28:26.622Z,59.04
2022-10-15T11:31:25.238Z,58.79
2022-10-15T11:34:18.328Z,58.38
2022-10-15T11:36:57.224Z,58.42
2022-10-15T11:39:44.608Z,57.93
2022-10-15T11:42:38.294Z,57.32
2022-10-15T11:45:31.523Z,57.12
2022-10-15T11:48:21.351Z,56.74
2022-10-15T11:50:54.915Z,56.10
2022-10-15T11:53:43.707Z,54.80
2022-10-15T11:56:18.320Z,54.82
2022-10-15T11:58:52.726Z,54.70
2022-10-15T12:01:48.312Z,54.50
2022-10-15T12:04:30.377Z,55.12
2022-10-15T12:07:01.722Z,55.54
2022-10-15T12:09:32.128Z,55.36
2022-10-15T12:12:23.662Z,55.70
2022-10-15T12:14:58.280Z,56.19
2022-10-15T12:17:36.085Z,56.21
2022-10-15T12:20:16.881Z,55.83
2022-10-15T12:22:53.227Z,56.43
2022-10-15T12:25:36.387Z,56.35
2022-10-15T12:28:14.135Z,56.09
2022-10-15T12:30:43.122Z,56.33
2022-10-15T12:33:45.679Z,56.33
2022-10-15T12:36:28.475Z,56.91
2022-10-15T12:38:57.398Z,56.55
2022-10-15T12:41:41.785Z,57.03
2022-10-15T12:44:18.331Z,57.13
2022-10-15T12:46:49.771Z,57.01
2022-10-15T12:49:32.524Z,57.52
2022-10-15T12:52:01.818Z,57.65
2022-10-15T12:54:46.576Z,57.99
2022-10-15T12:57:30.748Z,58.08
2022-10-15T12:59:59.893Z,58.11
2022-10-15T13:02:47.775Z,58.06
2022-10-15T13:05:31.826Z,58.29
2022-10-15T13:08:11.979Z,58.59
2022-10-15T13:10:49.934Z,58.40
2022-10-15T13:13:46.389Z,58.28
2022-10-15T13:16:17.218Z,58.95
2022-10-15T13:18:53.007Z,58.87
2022-10-15T13:21:20.975Z,58.98
2022-10-15T13:23:53.777Z,59.46
2022-10-15T13:26:26.283Z,59.53
2022-10-15T13:28:55.412Z,59.33
2022-10-15T13:31:29.358Z,59.83
2022-10-15T13:34:27.464Z,59.65
2022-10-15T13:36:58.755Z,59.44
2022-10-15T13:39:40.511Z,59.57
2022-10-15T13:42:24.293Z,59.79
2022-10-15T13:45:00.115Z,60.15
2022-10-15T13:47:36.266Z,60.08
2022-10-15T13:50:17.087Z,60.26
2022-10-15T13:52:47.634Z,60.72
2022-10-15T13:55:33.932Z,61.01
2022-10-15T13:58:06.892Z,61.96
2022-10-15T14:00:37.822Z,62.21
2022-10-15T14:03:23.700Z,62.71
2022-10-15T14:05:51.591Z,62.84
2022-10-15T14:08:22.908Z,63.37
2022-10-15T14:10:56.748Z,63.49
2022-10-15T14:13:23.949Z,63.73
2022-10-15T14:16:26.482Z,63.62
2022-10-15T14:18:57.743Z,63.93
2022-10-15T14:21:29.237Z,64.20
2022-10-15T14:24:16.978Z,64.25
2022-10-15T14:26:44.503Z,64.45
2022-10-15T14:29:31.115Z,64.36
2022-10-15T14:32:01.164Z,64.34
2022-10-15T14:34:39.248Z,64.75
2022-10-15T14:37:31.973Z,65.13
2022-10-15T14:40:21.808Z,65.30
2022-10-15T14:43:05.716Z,65.30
2022-10-15T14:45:51.034Z,65.53
2022-10-15T14:48:21.439Z,65.76
2022-10-15T14:50:48.608Z,66.05
2022-10-15T14:53:22.974Z,66.38
2022-10-15T14:56:04.999Z,66.37
2022-10-15T14:58:32.002Z,66.66
2022-10-15T15:01:03.918Z,66.98
2022-10-15T15:03:52.560Z,67.31
2022-10-15T15:06:24.032Z,67.54
2022-10-15T15:08:56.307Z,67.63
2022-10-15T15:11:35.189Z,67.50
2022-10-15T15:14:04.885Z,67.89
2022-10-15T15:16:32.525Z,68.16
2022-10-15T15:21:49.092Z,68.03
2022-10-15T15:24:16.134Z,68.12
2022-10-15T15:26:43.088Z,67.91
2022-10-15T15:29:14.252Z,67.99
2022-10-15T15:31:48.426Z,67.87
2022-10-15T15:34:15.633Z,67.88
2022-10-15T15:36:42.566Z,67.81
2022-10-15T15:39:09.591Z,67.89
2022-10-15T15:41:42.090Z,67.70
2022-10-15T15:44:36.196Z,67.81
2022-10-15T15:50:01.431Z,68.35
2022-10-15T15:52:58.758Z,68.36
2022-10-15T15:55:29.596Z,68.61
2022-10-15T15:57:56.748Z,68.72
2022-10-15T16:00:49.176Z,68.87
2022-10-15T16:03:16.107Z,69.22
2022-10-15T16:08:17.270Z,69.57
2022-10-15T16:10:45.518Z,69.70
2022-10-15T16:13:12.859Z,69.61
2022-10-15T16:15:39.813Z,69.56
2022-10-15T16:18:06.891Z,69.92
2022-10-15T16:20:39.590Z,70.08
2022-10-15T16:23:11.868Z,70.22
2022-10-15T16:25:39.932Z,70.38
2022-10-15T16:28:06.904Z,70.75
2022-10-15T16:33:35.858Z,71.58
2022-10-15T16:36:03.203Z,71.73
2022-10-15T16:38:37.518Z,72.30
2022-10-15T16:41:06.929Z,72.99
2022-10-15T16:43:35.411Z,73.19
2022-10-15T16:46:04.191Z,73.63
2022-10-15T16:48:35.541Z,74.05
2022-10-15T16:51:14.397Z,74.58
2022-10-15T16:53:43.885Z,74.57
2022-10-15T16:56:25.703Z,74.88
2022-10-15T16:58:56.588Z,75.01
2022-10-15T17:01:27.074Z,74.97
2022-10-15T17:04:00.658Z,75.19
2022-10-15T17:06:31.266Z,75.32
2022-10-15T17:09:00.930Z,75.39
2022-10-15T17:11:35.755Z,75.60
2022-10-15T17:14:07.089Z,75.86
2022-10-15T17:16:53.167Z,75.90
2022-10-15T17:19:24.338Z,76.12
2022-10-15T17:25:09.768Z,75.71
2022-10-15T17:27:51.322Z,75.81
2022-10-15T17:30:18.891Z,75.97
2022-10-15T17:32:53.994Z,76.16
2022-10-15T17:35:24.482Z,76.34
2022-10-15T17:38:00.346Z,76.73
2022-10-15T17:40:27.714Z,76.76
2022-10-15T17:42:55.999Z,76.94
2022-10-15T17:45:51.546Z,77.31
2022-10-15T17:48:22.732Z,77.10
2022-10-15T17:50:58.641Z,76.93
2022-10-15T17:53:28.075Z,76.65
2022-10-15T17:55:59.648Z,76.39
2022-10-15T17:58:36.539Z,76.31
2022-10-15T18:01:06.284Z,76.54
2022-10-15T18:03:35.022Z,76.03
2022-10-15T18:06:13.059Z,76.26
2022-10-15T18:08:40.220Z,76.26
2022-10-15T18:11:21.580Z,76.42
2022-10-15T18:13:50.315Z,76.45
2022-10-15T18:16:18.798Z,76.72
2022-10-15T18:18:53.312Z,76.57
2022-10-15T18:21:25.149Z,76.75
2022-10-15T18:23:54.859Z,76.23
2022-10-15T18:29:31.893Z,76.08
2022-10-15T18:33:14.984Z,76.06
2022-10-15T18:35:54.754Z,76.14
2022-10-15T18:38:23.092Z,76.31
2022-10-15T18:40:56.616Z,76.50
2022-10-15T18:43:25.319Z,76.43
2022-10-15T18:45:52.561Z,76.32
2022-10-15T18:48:21.811Z,76.33
2022-10-15T18:50:50.476Z,75.60
2022-10-15T18:53:17.643Z,75.43
2022-10-15T18:55:56.005Z,74.92
2022-10-15T18:58:22.966Z,74.53
2022-10-15T19:00:52.623Z,74.73
2022-10-15T19:03:21.527Z,74.35
2022-10-15T19:05:51.058Z,74.79
2022-10-15T19:08:21.356Z,74.96
2022-10-15T19:10:53.592Z,75.24
2022-10-15T19:13:22.805Z,74.67
2022-10-15T19:15:58.388Z,74.77
2022-10-15T19:18:29.915Z,75.27
2022-10-15T19:21:00.036Z,75.62
2022-10-15T19:23:31.241Z,75.72
2022-10-15T19:26:01.259Z,75.80
2022-10-15T19:28:31.476Z,75.43
2022-10-15T19:31:03.425Z,75.49
2022-10-15T19:33:34.816Z,75.18
2022-10-15T19:36:07.606Z,74.93
2022-10-15T19:38:36.337Z,74.92
2022-10-15T19:41:07.530Z,74.48
2022-10-15T19:43:34.477Z,74.32
2022-10-15T19:46:04.768Z,73.87
2022-10-15T19:48:33.645Z,73.71
2022-10-15T19:51:11.419Z,73.46
2022-10-15T19:53:40.956Z,73.54
2022-10-15T19:56:10.681Z,73.58
2022-10-15T19:58:37.873Z,73.72
2022-10-15T20:01:11.593Z,73.74
2022-10-15T20:03:38.673Z,73.80
2022-10-15T20:06:09.098Z,73.92
2022-10-15T20:08:36.304Z,73.67
2022-10-15T20:11:08.610Z,73.79
2022-10-15T20:13:36.494Z,74.05
2022-10-15T20:16:06.009Z,74.09
2022-10-15T20:18:34.208Z,74.23
2022-10-15T20:21:02.406Z,74.14
2022-10-15T20:23:29.540Z,74.21
2022-10-15T20:25:56.449Z,74.03
2022-10-15T20:28:24.145Z,73.93
2022-10-15T20:33:30.217Z,73.79
2022-10-15T20:36:03.408Z,73.88
2022-10-15T20:38:30.446Z,74.28
2022-10-15T20:40:57.437Z,74.05
2022-10-15T20:43:24.695Z,74.38
2022-10-15T20:45:51.864Z,74.28
2022-10-15T20:48:21.535Z,74.07
2022-10-15T20:50:49.772Z,74.14
2022-10-15T20:53:18.187Z,74.00
2022-10-15T20:55:45.230Z,74.13
2022-10-15T20:58:12.607Z,74.43
2022-10-15T21:00:39.553Z,74.38
2022-10-15T21:03:06.500Z,74.53
2022-10-15T21:05:34.512Z,74.75
2022-10-15T21:08:01.455Z,74.72
2022-10-15T21:10:31.352Z,74.92
2022-10-15T21:13:01.291Z,74.89
2022-10-15T21:15:30.085Z,75.04
2022-10-15T21:17:58.463Z,75.24
2022-10-15T21:20:26.656Z,75.23
2022-10-15T21:22:53.753Z,75.38
2022-10-15T21:25:21.447Z,75.35
2022-10-15T21:27:48.450Z,75.39
2022-10-15T21:30:15.909Z,75.64
2022-10-15T21:32:45.714Z,75.68
2022-10-15T21:35:12.827Z,75.87
2022-10-15T21:37:39.784Z,75.98
2022-10-15T21:40:07.781Z,75.98
2022-10-15T21:42:35.714Z,75.89
2022-10-15T21:45:02.655Z,75.97
2022-10-15T21:47:32.163Z,76.22
2022-10-15T21:49:59.759Z,76.28
2022-10-15T21:52:26.717Z,76.37
2022-10-15T21:54:54.319Z,76.55
2022-10-15T21:57:21.372Z,76.33
2022-10-15T21:59:50.832Z,76.53
2022-10-15T22:02:22.968Z,76.67
2022-10-15T22:04:49.980Z,76.43
2022-10-15T22:07:16.998Z,76.42
2022-10-15T22:09:44.031Z,76.54
2022-10-15T22:12:15.523Z,76.97
2022-10-15T22:14:44.904Z,76.98
2022-10-15T22:17:12.704Z,77.12
2022-10-15T22:19:42.493Z,77.20
2022-10-15T22:22:09.530Z,77.17
2022-10-15T22:24:36.874Z,77.19
2022-10-15T22:27:03.877Z,77.36
2022-10-15T22:29:35.457Z,77.44
2022-10-15T22:32:05.955Z,77.43
2022-10-15T22:34:36.056Z,77.74
2022-10-15T22:37:02.975Z,77.67
2022-10-15T22:39:29.981Z,77.74
2022-10-15T22:41:57.083Z,78.02
2022-10-15T22:44:24.089Z,77.78
2022-10-15T22:46:51.324Z,77.73
2022-10-15T22:49:21.800Z,77.99
2022-10-15T22:51:50.224Z,78.08
2022-10-15T22:54:20.801Z,78.20
2022-10-15T22:56:51.629Z,78.18
2022-10-15T22:59:18.822Z,78.47
2022-10-15T23:01:45.887Z,78.08
2022-10-15T23:04:14.712Z,78.44
2022-10-15T23:06:42.336Z,78.53
2022-10-15T23:09:11.494Z,78.79
2022-10-15T23:11:40.146Z,78.65
2022-10-15T23:14:10.968Z,78.82
2022-10-15T23:16:40.663Z,79.12
2022-10-15T23:19:20.344Z,79.06
2022-10-15T23:21:52.271Z,79.06
2022-10-15T23:24:39.506Z,79.06
2022-10-15T23:27:06.560Z,78.95
2022-10-15T23:29:33.507Z,79.07
2022-10-15T23:32:00.470Z,79.28
2022-10-15T23:34:28.557Z,79.72
2022-10-15T23:36:55.549Z,79.76
2022-10-15T23:39:25.817Z,79.75
2022-10-15T23:41:53.702Z,79.76
2022-10-15T23:44:20.895Z,79.92
2022-10-15T23:46:48.205Z,79.81
2022-10-15T23:49:18.229Z,79.89
2022-10-15T23:51:45.355Z,80.14
2022-10-15T23:54:18.045Z,80.18
2022-10-15T23:56:47.917Z,80.33
2022-10-15T23:59:18.356Z,80.39
